createdAt,value
2022-08-05T00:00:29.451Z,24.48
2022-08-05T00:01:28.982Z,24.48
2022-08-05T00:02:28.721Z,24.46
2022-08-05T00:03:28.433Z,24.44
2022-08-05T00:04:28.410Z,24.41
2022-08-05T00:06:05.468Z,24.41
2022-08-05T00:06:33.333Z,24.40
2022-08-05T00:08:00.589Z,24.40
2022-08-05T00:08:35.063Z,24.38
2022-08-05T00:09:29.322Z,24.38
2022-08-05T00:10:28.323Z,24.36
2022-08-05T00:11:34.894Z,24.32
2022-08-05T00:12:29.287Z,24.31
2022-08-05T00:13:38.167Z,24.29
2022-08-05T00:14:31.486Z,24.26
2022-08-05T00:15:55.799Z,24.26
2022-08-05T00:16:35.964Z,24.25
2022-08-05T00:17:29.652Z,24.24
2022-08-05T00:18:28.255Z,24.21
2022-08-05T00:19:33.495Z,24.21
2022-08-05T00:20:29.263Z,24.16
2022-08-05T00:21:30.651Z,24.18
2022-08-05T00:22:28.193Z,24.16
2022-08-05T00:23:44.824Z,24.13
2022-08-05T00:24:30.692Z,24.10
2022-08-05T00:25:28.177Z,24.09
2022-08-05T00:26:29.176Z,24.06
2022-08-05T00:27:28.479Z,24.06
2022-08-05T00:28:29.822Z,24.03
2022-08-05T00:29:37.831Z,24.01
2022-08-05T00:30:32.112Z,23.99
2022-08-05T00:31:53.027Z,23.99
2022-08-05T00:32:29.084Z,23.94
2022-08-05T00:34:56.128Z,23.91
2022-08-05T00:34:56.488Z,23.94
2022-08-05T00:35:33.153Z,23.89
2022-08-05T00:37:11.307Z,23.88
2022-08-05T00:37:35.423Z,23.86
2022-08-05T00:38:33.952Z,23.84
2022-08-05T00:39:29.066Z,23.82
2022-08-05T00:40:29.482Z,23.79
2022-08-05T00:41:28.005Z,23.79
2022-08-05T00:42:31.892Z,23.77
2022-08-05T00:43:27.986Z,23.76
2022-08-05T00:44:30.981Z,23.73
2022-08-05T00:45:42.977Z,23.73
2022-08-05T00:46:42.601Z,23.70
2022-08-05T00:47:49.226Z,23.69
2022-08-05T00:48:31.611Z,23.66
2022-08-05T00:49:27.929Z,23.66
2022-08-05T00:50:28.886Z,23.63
2022-08-05T00:51:50.443Z,23.63
2022-08-05T00:52:29.009Z,23.58
2022-08-05T00:54:00.330Z,23.58
2022-08-05T00:54:30.194Z,23.56
2022-08-05T00:55:34.195Z,23.54
2022-08-05T00:56:28.817Z,23.52
2022-08-05T00:57:31.818Z,23.51
2022-08-05T00:58:28.807Z,23.49
2022-08-05T00:59:34.686Z,23.49
2022-08-05T01:00:28.882Z,23.47
2022-08-05T01:01:48.303Z,23.44
2022-08-05T01:02:28.783Z,23.42
2022-08-05T01:03:33.505Z,23.40
2022-08-05T01:04:29.895Z,23.39
2022-08-05T01:05:27.879Z,23.37
2022-08-05T01:06:32.460Z,23.36
2022-08-05T01:07:31.759Z,23.34
2022-08-05T01:08:41.698Z,23.32
2022-08-05T01:09:30.442Z,23.29
2022-08-05T01:10:27.657Z,23.28
2022-08-05T01:11:36.764Z,23.28
2022-08-05T01:12:29.699Z,23.28
2022-08-05T01:13:59.099Z,23.25
2022-08-05T01:14:28.764Z,23.21
2022-08-05T01:15:36.440Z,23.21
2022-08-05T01:16:28.578Z,23.20
2022-08-05T01:17:27.568Z,23.17
2022-08-05T01:18:27.598Z,23.17
2022-08-05T01:19:30.381Z,23.16
2022-08-05T01:20:28.540Z,23.16
2022-08-05T01:21:38.077Z,23.13
2022-08-05T01:22:28.542Z,23.11
2022-08-05T01:23:34.859Z,23.10
2022-08-05T01:24:30.295Z,23.08
2022-08-05T01:25:39.632Z,23.06
2022-08-05T01:26:28.491Z,23.04
2022-08-05T01:27:27.480Z,23.02
2022-08-05T01:28:28.482Z,23.01
2022-08-05T01:29:27.479Z,22.99
2022-08-05T01:30:33.717Z,22.98
2022-08-05T01:31:28.499Z,22.98
2022-08-05T01:32:27.612Z,22.95
2022-08-05T01:33:27.407Z,22.95
2022-08-05T01:34:28.411Z,22.92
2022-08-05T01:35:52.194Z,22.93
2022-08-05T01:36:28.716Z,22.91
2022-08-05T01:37:27.544Z,22.91
2022-08-05T01:38:30.037Z,22.91
2022-08-05T01:39:36.818Z,22.91
2022-08-05T01:40:29.127Z,22.88
2022-08-05T01:41:27.320Z,22.86
2022-08-05T01:42:27.283Z,22.88
2022-08-05T01:43:27.281Z,22.86
2022-08-05T01:44:34.208Z,22.84
2022-08-05T01:45:28.291Z,22.86
2022-08-05T01:46:42.933Z,22.84
2022-08-05T01:47:39.692Z,22.83
2022-08-05T01:48:28.495Z,22.83
2022-08-05T01:49:27.231Z,22.83
2022-08-05T01:50:28.591Z,22.83
2022-08-05T01:51:30.000Z,22.81
2022-08-05T01:52:27.175Z,22.81
2022-08-05T01:53:57.757Z,22.83
2022-08-05T01:54:28.171Z,22.81
2022-08-05T01:55:27.162Z,22.81
2022-08-05T01:58:12.248Z,22.81
2022-08-05T01:58:12.558Z,22.81
2022-08-05T01:58:40.735Z,22.81
2022-08-05T01:59:28.138Z,22.81
2022-08-05T02:00:29.887Z,22.81
2022-08-05T02:01:27.149Z,22.78
2022-08-05T02:02:28.671Z,22.81
2022-08-05T02:03:31.442Z,22.78
2022-08-05T02:04:28.118Z,22.78
2022-08-05T02:05:28.512Z,22.78
2022-08-05T02:06:38.445Z,22.78
2022-08-05T02:07:30.445Z,22.77
2022-08-05T02:08:31.304Z,22.76
2022-08-05T02:09:27.015Z,22.76
2022-08-05T02:10:28.657Z,22.76
2022-08-05T02:11:33.535Z,22.74
2022-08-05T02:12:27.967Z,22.73
2022-08-05T02:13:26.974Z,22.73
2022-08-05T02:14:27.953Z,22.73
2022-08-05T02:15:33.226Z,22.71
2022-08-05T02:16:27.943Z,22.71
2022-08-05T02:18:28.204Z,22.71
2022-08-05T02:18:34.615Z,22.70
2022-08-05T02:19:27.921Z,22.70
2022-08-05T02:20:26.894Z,22.68
2022-08-05T02:21:26.905Z,22.68
2022-08-05T02:22:27.451Z,22.67
2022-08-05T02:23:26.836Z,22.68
2022-08-05T02:24:26.834Z,22.67
2022-08-05T02:25:27.055Z,22.67
2022-08-05T02:26:27.783Z,22.67
2022-08-05T02:27:29.975Z,22.68
2022-08-05T02:28:29.356Z,22.65
2022-08-05T02:29:58.402Z,22.65
2022-08-05T02:30:27.787Z,22.63
2022-08-05T02:31:26.834Z,22.63
2022-08-05T02:32:30.828Z,22.63
2022-08-05T02:33:36.242Z,22.67
2022-08-05T02:34:28.038Z,22.62
2022-08-05T02:35:33.079Z,22.65
2022-08-05T02:36:31.245Z,22.61
2022-08-05T02:37:26.718Z,22.61
2022-08-05T02:38:27.717Z,22.59
2022-08-05T02:39:27.754Z,22.61
2022-08-05T02:40:26.675Z,22.59
2022-08-05T02:41:28.732Z,22.58
2022-08-05T02:42:31.895Z,22.59
2022-08-05T02:43:27.636Z,22.58
2022-08-05T02:44:26.654Z,22.55
2022-08-05T02:45:26.651Z,22.56
2022-08-05T02:46:27.590Z,22.55
2022-08-05T02:47:58.761Z,22.56
2022-08-05T02:48:29.469Z,22.53
2022-08-05T02:49:26.568Z,22.53
2022-08-05T02:50:26.584Z,22.52
2022-08-05T02:51:28.227Z,22.53
2022-08-05T02:52:30.459Z,22.52
2022-08-05T02:53:26.500Z,22.53
2022-08-05T02:54:34.801Z,22.52
2022-08-05T02:55:55.289Z,22.51
2022-08-05T02:56:27.517Z,22.51
2022-08-05T02:58:10.986Z,22.51
2022-08-05T02:58:28.955Z,22.51
2022-08-05T02:59:26.910Z,22.51
2022-08-05T03:00:26.904Z,22.49
2022-08-05T03:01:27.179Z,22.49
2022-08-05T03:02:27.674Z,22.51
2022-08-05T03:03:26.410Z,22.49
2022-08-05T03:04:26.418Z,22.49
2022-08-05T03:06:54.597Z,22.49
2022-08-05T03:06:56.160Z,22.46
2022-08-05T03:08:00.086Z,22.49
2022-08-05T03:08:30.010Z,22.47
2022-08-05T03:09:27.250Z,22.47
2022-08-05T03:10:27.329Z,22.47
2022-08-05T03:11:56.505Z,22.46
2022-08-05T03:12:27.297Z,22.46
2022-08-05T03:13:27.690Z,22.46
2022-08-05T03:14:27.287Z,22.46
2022-08-05T03:15:26.320Z,22.44
2022-08-05T03:16:26.288Z,22.43
2022-08-05T03:17:26.600Z,22.44
2022-08-05T03:18:30.063Z,22.44
2022-08-05T03:19:34.454Z,22.44
2022-08-05T03:20:27.208Z,22.43
2022-08-05T03:21:28.946Z,22.43
2022-08-05T03:22:32.384Z,22.43
2022-08-05T03:23:27.188Z,22.43
2022-08-05T03:24:29.313Z,22.41
2022-08-05T03:25:33.342Z,22.41
2022-08-05T03:26:31.516Z,22.38
2022-08-05T03:27:39.380Z,22.40
2022-08-05T03:28:27.110Z,22.40
2022-08-05T03:29:45.486Z,22.38
2022-08-05T03:30:28.686Z,22.40
2022-08-05T03:31:55.624Z,22.37
2022-08-05T03:32:30.655Z,22.37
2022-08-05T03:33:32.175Z,22.37
2022-08-05T03:34:27.100Z,22.37
2022-08-05T03:35:26.050Z,22.36
2022-08-05T03:36:30.514Z,22.36
2022-08-05T03:37:26.456Z,22.33
2022-08-05T03:38:33.367Z,22.33
2022-08-05T03:39:27.752Z,22.33
2022-08-05T03:40:32.328Z,22.31
2022-08-05T03:41:26.990Z,22.31
2022-08-05T03:42:28.959Z,22.30
2022-08-05T03:44:09.979Z,22.30
2022-08-05T03:44:28.985Z,22.28
2022-08-05T03:45:25.944Z,22.28
2022-08-05T03:46:29.801Z,22.26
2022-08-05T03:47:30.517Z,22.26
2022-08-05T03:48:26.891Z,22.26
2022-08-05T03:49:51.090Z,22.26
2022-08-05T03:50:26.900Z,22.25
2022-08-05T03:52:38.977Z,22.23
2022-08-05T03:52:48.835Z,22.22
2022-08-05T03:55:49.952Z,22.19
2022-08-05T03:55:52.078Z,22.21
2022-08-05T03:56:04.208Z,22.21
2022-08-05T03:56:31.855Z,22.18
2022-08-05T03:57:29.053Z,22.16
2022-08-05T03:58:29.054Z,22.16
2022-08-05T03:59:25.801Z,22.14
2022-08-05T04:00:25.791Z,22.08
2022-08-05T04:01:25.884Z,22.08
2022-08-05T04:02:38.628Z,22.07
2022-08-05T04:03:28.315Z,22.04
2022-08-05T04:04:26.518Z,22.03
2022-08-05T04:05:25.754Z,22.03
2022-08-05T04:06:25.726Z,22.00
2022-08-05T04:07:25.892Z,22.00
2022-08-05T04:08:35.052Z,21.97
2022-08-05T04:09:26.826Z,21.96
2022-08-05T04:10:27.900Z,21.96
2022-08-05T04:11:25.672Z,21.94
2022-08-05T04:12:26.706Z,21.92
2022-08-05T04:13:25.646Z,21.91
2022-08-05T04:14:30.421Z,21.88
2022-08-05T04:15:25.633Z,21.85
2022-08-05T04:16:32.454Z,21.83
2022-08-05T04:17:55.821Z,21.80
2022-08-05T04:18:26.598Z,21.77
2022-08-05T04:19:25.594Z,21.75
2022-08-05T04:20:25.572Z,21.75
2022-08-05T04:22:10.359Z,21.74
2022-08-05T04:22:26.654Z,21.75
2022-08-05T04:23:57.165Z,21.75
2022-08-05T04:24:27.721Z,21.74
2022-08-05T04:25:56.871Z,21.75
2022-08-05T04:26:26.884Z,21.74
2022-08-05T04:27:41.681Z,21.74
2022-08-05T04:28:30.677Z,21.74
2022-08-05T04:29:27.195Z,21.75
2022-08-05T04:30:26.543Z,21.74
2022-08-05T04:31:33.942Z,21.75
2022-08-05T04:32:30.767Z,21.74
2022-08-05T04:33:54.362Z,21.75
2022-08-05T04:34:32.308Z,21.74
2022-08-05T04:35:26.434Z,21.74
2022-08-05T04:36:49.845Z,21.72
2022-08-05T04:38:01.391Z,21.74
2022-08-05T04:38:39.760Z,21.72
2022-08-05T04:39:27.435Z,21.72
2022-08-05T04:40:25.376Z,21.70
2022-08-05T04:41:36.596Z,21.72
2022-08-05T04:42:26.335Z,21.70
2022-08-05T04:43:26.056Z,21.70
2022-08-05T04:44:29.963Z,21.69
2022-08-05T04:45:47.890Z,21.68
2022-08-05T04:46:28.194Z,21.68
2022-08-05T04:47:25.728Z,21.66
2022-08-05T04:48:28.135Z,21.66
2022-08-05T04:49:38.722Z,21.65
2022-08-05T04:50:37.399Z,21.65
2022-08-05T04:51:26.336Z,21.65
2022-08-05T04:52:27.840Z,21.62
2022-08-05T04:53:25.234Z,21.62
2022-08-05T04:54:25.197Z,21.62
2022-08-05T04:56:15.306Z,21.60
2022-08-05T04:56:34.946Z,21.59
2022-08-05T04:57:28.948Z,21.58
2022-08-05T04:58:25.155Z,21.58
2022-08-05T04:59:36.791Z,21.58
2022-08-05T05:00:26.184Z,21.56
2022-08-05T05:01:33.495Z,21.59
2022-08-05T05:02:36.572Z,21.59
2022-08-05T05:03:26.128Z,21.60
2022-08-05T05:04:26.117Z,21.60
2022-08-05T05:05:28.204Z,21.60
2022-08-05T05:06:39.941Z,21.62
2022-08-05T05:07:29.443Z,21.62
2022-08-05T05:08:30.237Z,21.62
2022-08-05T05:09:26.047Z,21.65
2022-08-05T05:10:25.007Z,21.65
2022-08-05T05:11:24.987Z,21.62
2022-08-05T05:12:27.533Z,21.65
2022-08-05T05:13:24.965Z,21.65
2022-08-05T05:14:31.757Z,21.66
2022-08-05T05:16:01.983Z,21.65
2022-08-05T05:16:30.373Z,21.63
2022-08-05T05:17:57.193Z,21.63
2022-08-05T05:18:31.638Z,21.63
2022-08-05T05:19:27.339Z,21.65
2022-08-05T05:20:28.380Z,21.62
2022-08-05T05:21:27.188Z,21.63
2022-08-05T05:22:26.322Z,21.63
2022-08-05T05:23:24.896Z,21.66
2022-08-05T05:24:35.775Z,21.65
2022-08-05T05:25:40.350Z,21.66
2022-08-05T05:26:28.477Z,21.66
2022-08-05T05:27:44.676Z,21.65
2022-08-05T05:28:25.808Z,21.65
2022-08-05T05:29:24.818Z,21.66
2022-08-05T05:30:31.482Z,21.63
2022-08-05T05:31:25.762Z,21.66
2022-08-05T05:32:24.781Z,21.65
2022-08-05T05:33:24.779Z,21.66
2022-08-05T05:34:26.721Z,21.68
2022-08-05T05:35:25.102Z,21.68
2022-08-05T05:36:24.725Z,21.66
2022-08-05T05:37:29.277Z,21.68
2022-08-05T05:38:27.555Z,21.68
2022-08-05T05:39:24.742Z,21.69
2022-08-05T05:40:26.223Z,21.69
2022-08-05T05:41:24.668Z,21.70
2022-08-05T05:42:24.681Z,21.72
2022-08-05T05:43:57.293Z,21.74
2022-08-05T05:44:35.995Z,21.74
2022-08-05T05:45:25.640Z,21.74
2022-08-05T05:46:24.660Z,21.74
2022-08-05T05:47:30.600Z,21.77
2022-08-05T05:48:27.553Z,21.75
2022-08-05T05:49:24.594Z,21.78
2022-08-05T05:50:24.631Z,21.80
2022-08-05T05:51:24.562Z,21.83
2022-08-05T05:52:28.414Z,21.83
2022-08-05T05:53:25.600Z,21.85
2022-08-05T05:54:49.804Z,21.89
2022-08-05T05:55:25.618Z,21.91
2022-08-05T05:56:26.200Z,21.94
2022-08-05T05:57:25.750Z,21.99
2022-08-05T05:58:30.236Z,22.01
2022-08-05T05:59:25.506Z,22.06
2022-08-05T06:00:31.303Z,22.07
2022-08-05T06:01:26.870Z,22.10
2022-08-05T06:02:32.559Z,22.12
2022-08-05T06:03:40.672Z,22.14
2022-08-05T06:04:25.539Z,22.14
2022-08-05T06:05:24.563Z,22.14
2022-08-05T06:06:24.472Z,22.12
2022-08-05T06:07:41.263Z,22.12
2022-08-05T06:08:31.627Z,22.10
2022-08-05T06:09:52.639Z,22.10
2022-08-05T06:10:25.530Z,22.08
2022-08-05T06:11:24.402Z,22.10
2022-08-05T06:12:24.310Z,22.07
2022-08-05T06:13:24.316Z,22.06
2022-08-05T06:14:24.288Z,22.06
2022-08-05T06:15:24.527Z,22.06
2022-08-05T06:16:29.280Z,22.04
2022-08-05T06:17:31.116Z,22.04
2022-08-05T06:18:31.344Z,22.03
2022-08-05T06:19:34.910Z,22.01
2022-08-05T06:20:25.523Z,22.01
2022-08-05T06:21:24.213Z,22.00
2022-08-05T06:22:25.192Z,21.99
2022-08-05T06:23:24.194Z,22.00
2022-08-05T06:24:27.274Z,21.99
2022-08-05T06:25:25.119Z,21.99
2022-08-05T06:26:25.243Z,21.97
2022-08-05T06:28:10.999Z,21.97
2022-08-05T06:28:27.139Z,21.97
2022-08-05T06:29:52.097Z,21.99
2022-08-05T06:30:25.216Z,22.00
2022-08-05T06:31:30.420Z,21.99
2022-08-05T06:32:28.893Z,21.96
2022-08-05T06:33:33.367Z,21.97
2022-08-05T06:34:27.736Z,21.96
2022-08-05T06:36:07.602Z,21.94
2022-08-05T06:36:26.041Z,21.96
2022-08-05T06:37:58.038Z,21.94
2022-08-05T06:38:36.013Z,21.92
2022-08-05T06:39:27.908Z,21.96
2022-08-05T06:40:27.895Z,21.92
2022-08-05T06:41:25.025Z,21.96
2022-08-05T06:42:23.985Z,21.94
2022-08-05T06:43:58.550Z,21.94
2022-08-05T06:44:24.945Z,21.96
2022-08-05T06:45:44.634Z,21.94
2022-08-05T06:46:29.741Z,21.94
2022-08-05T06:48:11.560Z,21.94
2022-08-05T06:48:52.558Z,21.92
2022-08-05T06:50:00.259Z,21.94
2022-08-05T06:50:24.943Z,21.92
2022-08-05T06:51:29.809Z,21.92
2022-08-05T06:52:37.174Z,21.89
2022-08-05T06:53:28.343Z,21.91
2022-08-05T06:54:25.829Z,21.89
2022-08-05T06:55:23.874Z,21.88
2022-08-05T06:56:26.432Z,21.85
2022-08-05T06:57:57.478Z,21.84
2022-08-05T06:58:34.939Z,21.83
2022-08-05T06:59:24.866Z,21.81
2022-08-05T07:00:29.655Z,21.78
2022-08-05T07:01:32.064Z,21.77
2022-08-05T07:02:24.763Z,21.75
2022-08-05T07:03:28.033Z,21.75
2022-08-05T07:04:24.735Z,21.72
2022-08-05T07:05:27.686Z,21.70
2022-08-05T07:06:24.695Z,21.68
2022-08-05T07:07:35.544Z,21.69
2022-08-05T07:08:25.151Z,21.68
2022-08-05T07:09:24.965Z,21.68
2022-08-05T07:10:23.766Z,21.66
2022-08-05T07:11:25.426Z,21.65
2022-08-05T07:12:23.696Z,21.63
2022-08-05T07:13:54.288Z,21.63
2022-08-05T07:14:29.795Z,21.62
2022-08-05T07:15:34.602Z,21.62
2022-08-05T07:17:56.851Z,21.59
2022-08-05T07:17:59.332Z,21.59
2022-08-05T07:18:27.453Z,21.58
2022-08-05T07:19:57.987Z,21.58
2022-08-05T07:20:33.759Z,21.56
2022-08-05T07:21:25.864Z,21.56
2022-08-05T07:22:28.875Z,21.56
2022-08-05T07:23:26.071Z,21.56
2022-08-05T07:24:23.559Z,21.56
2022-08-05T07:25:55.916Z,21.58
2022-08-05T07:26:25.760Z,21.58
2022-08-05T07:27:27.561Z,21.60
2022-08-05T07:28:24.488Z,21.58
2022-08-05T07:29:25.398Z,21.60
2022-08-05T07:30:30.704Z,21.58
2022-08-05T07:31:40.975Z,21.60
2022-08-05T07:32:26.258Z,21.60
2022-08-05T07:33:37.062Z,21.60
2022-08-05T07:34:28.590Z,21.63
2022-08-05T07:36:04.136Z,21.65
2022-08-05T07:36:24.399Z,21.65
2022-08-05T07:37:23.549Z,21.70
2022-08-05T07:38:32.451Z,21.74
2022-08-05T07:40:26.557Z,21.75
2022-08-05T07:40:31.959Z,21.80
2022-08-05T07:42:13.354Z,21.83
2022-08-05T07:42:33.384Z,21.88
2022-08-05T07:43:24.310Z,21.88
2022-08-05T07:44:23.330Z,21.91
2022-08-05T07:45:56.705Z,21.97
2022-08-05T07:46:25.852Z,22.00
2022-08-05T07:47:25.805Z,22.03
2022-08-05T07:49:00.810Z,22.06
2022-08-05T07:49:24.280Z,22.08
2022-08-05T07:50:28.869Z,22.12
2022-08-05T07:51:40.983Z,22.15
2022-08-05T07:52:24.220Z,22.15
2022-08-05T07:53:23.190Z,22.15
2022-08-05T07:54:26.552Z,22.14
2022-08-05T07:56:05.287Z,22.14
2022-08-05T07:57:00.887Z,22.10
2022-08-05T07:57:55.222Z,22.07
2022-08-05T07:58:54.712Z,22.07
2022-08-05T07:59:38.607Z,22.06
2022-08-05T08:00:24.180Z,22.04
2022-08-05T08:01:23.177Z,22.06
2022-08-05T08:02:26.539Z,22.06
2022-08-05T08:03:24.110Z,22.07
2022-08-05T08:04:38.037Z,22.07
2022-08-05T08:05:26.383Z,22.07
2022-08-05T08:06:23.070Z,22.08
2022-08-05T08:07:24.541Z,22.10
2022-08-05T08:08:23.055Z,22.10
2022-08-05T08:09:23.080Z,22.10
2022-08-05T08:10:23.114Z,22.10
2022-08-05T08:11:27.630Z,22.12
2022-08-05T08:12:37.143Z,22.10
2022-08-05T08:13:29.153Z,22.12
2022-08-05T08:14:23.971Z,22.10
2022-08-05T08:16:33.813Z,22.10
2022-08-05T08:16:49.908Z,22.12
2022-08-05T08:17:24.221Z,22.14
2022-08-05T08:18:22.963Z,22.12
2022-08-05T08:20:21.652Z,22.14
2022-08-05T08:21:00.070Z,22.15
2022-08-05T08:21:23.940Z,22.16
2022-08-05T08:22:23.005Z,22.18
2022-08-05T08:24:03.315Z,22.19
2022-08-05T08:24:23.912Z,22.21
2022-08-05T08:25:26.496Z,22.26
2022-08-05T08:26:26.710Z,22.26
2022-08-05T08:27:24.026Z,22.30
2022-08-05T08:28:35.698Z,22.31
2022-08-05T08:30:03.070Z,22.36
2022-08-05T08:30:32.837Z,22.37
2022-08-05T08:31:23.810Z,22.38
2022-08-05T08:32:28.036Z,22.40
2022-08-05T08:33:23.946Z,22.40
2022-08-05T08:34:30.762Z,22.40
2022-08-05T08:35:26.530Z,22.43
2022-08-05T08:36:38.852Z,22.43
2022-08-05T08:37:28.018Z,22.43
2022-08-05T08:38:32.251Z,22.43
2022-08-05T08:39:23.795Z,22.44
2022-08-05T08:40:22.704Z,22.44
2022-08-05T08:41:25.980Z,22.46
2022-08-05T08:42:50.235Z,22.46
2022-08-05T08:45:24.059Z,22.49
2022-08-05T08:45:24.100Z,22.49
2022-08-05T08:45:27.194Z,22.47
2022-08-05T08:46:23.683Z,22.47
2022-08-05T08:48:07.712Z,22.46
2022-08-05T08:48:41.573Z,22.46
2022-08-05T08:50:05.774Z,22.44
2022-08-05T08:50:32.994Z,22.43
2022-08-05T08:52:04.052Z,22.40
2022-08-05T08:52:23.709Z,22.37
2022-08-05T08:53:22.578Z,22.38
2022-08-05T08:54:22.554Z,22.36
2022-08-05T08:56:01.528Z,22.34
2022-08-05T08:56:23.600Z,22.33
2022-08-05T08:57:22.581Z,22.31
2022-08-05T08:58:37.000Z,22.28
2022-08-05T08:59:23.585Z,22.28
2022-08-05T09:00:22.508Z,22.28
2022-08-05T09:01:22.565Z,22.28
2022-08-05T09:02:24.203Z,22.26
2022-08-05T09:03:22.466Z,22.25
2022-08-05T09:04:22.442Z,22.22
2022-08-05T09:05:38.683Z,22.22
2022-08-05T09:06:24.273Z,22.21
2022-08-05T09:07:28.887Z,22.21
2022-08-05T09:08:27.506Z,22.19
2022-08-05T09:09:23.385Z,22.18
2022-08-05T09:10:22.376Z,22.19
2022-08-05T09:11:50.910Z,22.18
2022-08-05T09:12:27.242Z,22.16
2022-08-05T09:13:23.558Z,22.18
2022-08-05T09:14:56.989Z,22.18
2022-08-05T09:15:23.440Z,22.19
2022-08-05T09:16:22.336Z,22.21
2022-08-05T09:17:42.334Z,22.22
2022-08-05T09:18:23.318Z,22.22
2022-08-05T09:19:27.747Z,22.22
2022-08-05T09:20:37.849Z,22.22
2022-08-05T09:22:22.028Z,22.23
2022-08-05T09:22:28.803Z,22.25
2022-08-05T09:23:23.451Z,22.25
2022-08-05T09:24:22.236Z,22.26
2022-08-05T09:25:24.057Z,22.28
2022-08-05T09:26:23.267Z,22.30
2022-08-05T09:28:03.961Z,22.31
2022-08-05T09:28:23.165Z,22.33
2022-08-05T09:29:31.039Z,22.37
2022-08-05T09:30:23.513Z,22.40
2022-08-05T09:32:40.351Z,22.41
2022-08-05T09:32:41.921Z,22.46
2022-08-05T09:33:23.167Z,22.47
2022-08-05T09:34:23.101Z,22.51
2022-08-05T09:35:27.231Z,22.53
2022-08-05T09:36:27.378Z,22.55
2022-08-05T09:38:17.572Z,22.62
2022-08-05T09:38:27.609Z,22.67
2022-08-05T09:39:23.183Z,22.73
2022-08-05T09:40:22.090Z,22.76
2022-08-05T09:41:22.040Z,22.81
2022-08-05T09:42:23.419Z,22.86
2022-08-05T09:43:22.062Z,22.92
2022-08-05T09:44:22.027Z,22.95
2022-08-05T09:46:06.322Z,22.99
2022-08-05T09:46:27.701Z,23.01
2022-08-05T09:47:23.215Z,23.07
2022-08-05T09:48:21.948Z,23.08
2022-08-05T09:49:22.945Z,23.13
2022-08-05T09:50:38.934Z,23.17
2022-08-05T09:51:22.917Z,23.16
2022-08-05T09:52:21.981Z,23.18
2022-08-05T09:53:25.940Z,23.21
2022-08-05T09:54:29.301Z,23.25
2022-08-05T09:55:57.261Z,23.28
2022-08-05T09:56:22.869Z,23.29
2022-08-05T09:57:23.673Z,23.36
2022-08-05T09:58:21.868Z,23.37
2022-08-05T09:59:21.845Z,23.44
2022-08-05T10:00:21.788Z,23.47
2022-08-05T10:01:31.955Z,23.52
2022-08-05T10:02:23.177Z,23.56
2022-08-05T10:03:21.790Z,23.64
2022-08-05T10:04:28.626Z,23.69
2022-08-05T10:05:22.780Z,23.77
2022-08-05T10:06:21.771Z,23.82
2022-08-05T10:08:11.109Z,23.88
2022-08-05T10:08:37.489Z,23.91
2022-08-05T10:09:27.693Z,23.94
2022-08-05T10:10:28.231Z,23.96
2022-08-05T10:11:22.806Z,24.00
2022-08-05T10:12:33.339Z,24.00
2022-08-05T10:13:22.681Z,24.06
2022-08-05T10:14:21.674Z,24.07
2022-08-05T10:15:21.819Z,24.11
2022-08-05T10:16:21.630Z,24.13
2022-08-05T10:17:37.230Z,24.14
2022-08-05T10:18:22.610Z,24.16
2022-08-05T10:19:23.862Z,24.19
2022-08-05T10:20:22.630Z,24.18
2022-08-05T10:21:23.000Z,24.21
2022-08-05T10:22:30.103Z,24.22
2022-08-05T10:23:55.465Z,24.24
2022-08-05T10:24:26.985Z,24.24
2022-08-05T10:25:21.552Z,24.25
2022-08-05T10:26:24.444Z,24.28
2022-08-05T10:27:26.265Z,24.34
2022-08-05T10:28:29.197Z,24.34
2022-08-05T10:29:23.937Z,24.36
2022-08-05T10:32:47.112Z,24.40
2022-08-05T10:32:51.847Z,24.41
2022-08-05T10:32:55.448Z,24.38
2022-08-05T10:33:22.472Z,24.43
2022-08-05T10:34:25.619Z,24.47
2022-08-05T10:35:22.415Z,24.48
2022-08-05T10:36:23.559Z,24.50
2022-08-05T10:37:21.413Z,24.55
2022-08-05T10:38:21.374Z,24.61
2022-08-05T10:39:24.071Z,24.71
2022-08-05T10:40:27.702Z,24.79
2022-08-05T10:41:23.607Z,24.89
2022-08-05T10:42:22.896Z,24.97
2022-08-05T10:43:23.297Z,25.06
2022-08-05T10:44:22.327Z,25.15
2022-08-05T10:45:23.880Z,25.29
2022-08-05T10:46:23.876Z,25.44
2022-08-05T10:47:26.973Z,25.63
2022-08-05T10:48:31.653Z,25.83
2022-08-05T10:49:27.562Z,25.99
2022-08-05T10:50:36.694Z,26.11
2022-08-05T10:51:23.235Z,26.24
2022-08-05T10:52:22.535Z,26.36
2022-08-05T10:53:21.225Z,26.52
2022-08-05T10:54:28.694Z,26.68
2022-08-05T10:55:22.175Z,26.91
2022-08-05T10:56:25.797Z,27.10
2022-08-05T10:57:22.153Z,27.26
2022-08-05T10:58:21.152Z,27.41
2022-08-05T11:00:03.477Z,27.52
2022-08-05T11:00:22.834Z,27.58
2022-08-05T11:01:28.421Z,27.66
2022-08-05T11:02:37.536Z,27.73
2022-08-05T11:03:24.750Z,27.82
2022-08-05T11:04:21.360Z,27.93
2022-08-05T11:05:21.075Z,28.04
2022-08-05T11:06:21.046Z,28.15
2022-08-05T11:07:32.930Z,28.27
2022-08-05T11:08:33.656Z,28.38
2022-08-05T11:09:32.453Z,28.50
2022-08-05T11:10:22.036Z,28.64
2022-08-05T11:11:22.017Z,28.74
2022-08-05T11:12:20.998Z,28.77
2022-08-05T11:13:21.158Z,28.84
2022-08-05T11:14:25.583Z,28.93
2022-08-05T11:15:22.021Z,29.16
2022-08-05T11:16:21.522Z,29.62
2022-08-05T11:17:57.543Z,30.20
2022-08-05T11:18:21.977Z,30.48
2022-08-05T11:20:11.338Z,30.55
2022-08-05T11:20:22.222Z,30.63
2022-08-05T11:21:20.987Z,30.71
2022-08-05T11:22:20.949Z,31.00
2022-08-05T11:23:20.919Z,31.14
2022-08-05T11:24:30.688Z,31.35
2022-08-05T11:26:05.554Z,31.50
2022-08-05T11:26:29.201Z,31.67
2022-08-05T11:27:21.979Z,31.70
2022-08-05T11:28:20.869Z,31.77
2022-08-05T11:29:20.835Z,31.90
2022-08-05T11:30:20.862Z,31.92
2022-08-05T11:31:54.202Z,31.92
2022-08-05T11:32:21.827Z,31.97
2022-08-05T11:33:21.284Z,32.16
2022-08-05T11:34:26.113Z,32.22
2022-08-05T11:35:21.787Z,32.29
2022-08-05T11:36:34.229Z,32.24
2022-08-05T11:38:28.477Z,32.23
2022-08-05T11:38:36.840Z,32.17
2022-08-05T11:39:22.626Z,32.16
2022-08-05T11:40:20.709Z,32.15
2022-08-05T11:41:58.004Z,32.20
2022-08-05T11:42:21.709Z,32.17
2022-08-05T11:43:21.703Z,32.19
2022-08-05T11:44:53.093Z,32.39
2022-08-05T11:46:14.631Z,32.45
2022-08-05T11:46:33.305Z,32.60
2022-08-05T11:47:22.139Z,32.63
2022-08-05T11:48:21.634Z,33.38
2022-08-05T11:49:20.613Z,34.43
2022-08-05T11:50:20.612Z,34.50
2022-08-05T11:51:44.130Z,35.03
2022-08-05T11:52:22.987Z,35.44
2022-08-05T11:53:21.615Z,36.29
2022-08-05T11:54:20.721Z,36.39
2022-08-05T11:55:20.605Z,36.26
2022-08-05T11:56:20.575Z,36.47
2022-08-05T11:57:25.391Z,37.06
2022-08-05T11:58:21.666Z,37.79
2022-08-05T11:59:21.212Z,38.57
2022-08-05T12:00:20.563Z,39.07
2022-08-05T12:01:20.498Z,39.68
2022-08-05T12:02:23.848Z,40.12
2022-08-05T12:03:28.990Z,40.40
2022-08-05T12:04:21.483Z,40.13
2022-08-05T12:05:20.517Z,40.73
2022-08-05T12:06:20.460Z,40.76
2022-08-05T12:08:10.541Z,41.17
2022-08-05T12:08:21.468Z,40.52
2022-08-05T12:09:20.435Z,39.78
2022-08-05T12:10:20.428Z,40.31
2022-08-05T12:11:20.759Z,39.79
2022-08-05T12:12:20.418Z,38.91
2022-08-05T12:13:47.794Z,38.22
2022-08-05T12:14:21.409Z,37.67
2022-08-05T12:15:20.480Z,37.22
2022-08-05T12:16:27.028Z,36.81
2022-08-05T12:18:02.521Z,36.35
2022-08-05T12:18:24.293Z,35.90
2022-08-05T12:20:26.325Z,35.57
2022-08-05T12:20:30.731Z,35.22
2022-08-05T12:21:21.269Z,34.98
2022-08-05T12:22:20.304Z,34.73
2022-08-05T12:23:20.240Z,34.53
2022-08-05T12:24:20.241Z,34.53
2022-08-05T12:25:20.222Z,34.47
2022-08-05T12:26:21.270Z,34.46
2022-08-05T12:27:21.599Z,34.32
2022-08-05T12:28:21.212Z,34.13
2022-08-05T12:29:22.765Z,33.98
2022-08-05T12:30:20.204Z,33.84
2022-08-05T12:31:23.744Z,33.77
2022-08-05T12:32:21.185Z,33.72
2022-08-05T12:33:27.734Z,33.75
2022-08-05T12:34:23.563Z,33.88
2022-08-05T12:35:21.609Z,33.82
2022-08-05T12:36:20.281Z,33.66
2022-08-05T12:37:21.777Z,33.45
2022-08-05T12:38:22.209Z,33.26
2022-08-05T12:39:20.142Z,33.03
2022-08-05T12:40:26.345Z,32.82
2022-08-05T12:41:21.164Z,32.64
2022-08-05T12:42:21.117Z,32.48
2022-08-05T12:43:20.943Z,32.41
2022-08-05T12:44:32.801Z,32.71
2022-08-05T12:45:22.126Z,33.13
2022-08-05T12:46:24.872Z,33.53
2022-08-05T12:47:21.024Z,33.39
2022-08-05T12:48:32.363Z,33.28
2022-08-05T12:49:21.000Z,33.32
2022-08-05T12:50:20.045Z,33.39
2022-08-05T12:51:21.877Z,33.94
2022-08-05T12:52:25.275Z,33.94